New York, New York
Traffic Map
Current Weather Conditions
New York, New York
Overcast
Overcast
36°
Feels Like: 31°
Wind Chill: 31° Ceiling: 1700
Heat Index: 36° Visibility: 10mi
Dew Point: 26° Wind: 6mph
Humidity: 67% Direction: 80° (E)
Pressure: 30.25in Gusts: 0mph
Raw Report DataKNYC 180251Z AUTO 08005KT 10SM BKN017 BKN065 OVC120 02/M03 A3025 RMK AO2 SLP237 T00221033 58012 $
Traffic Incident Summary
Active as of:
Severity:
Category:
InformationThere was an issue retrieving the traffic information for this location. Please try a different location or try again shortly.
Advertisements